.
WxDataArchive / Data Records for 2007-01-28
2007-01-27 January 2007 2007-01-29

Data Records for Sunday, 28 January 2007

Time	Temp	Chill	HIndex	Humid	Dewpt	 Wind 	HiWind	WindDir	Rain 	Barom 
-----	----	-----	------	-----	-----	------	------	-------	-----	----- 
00:00	26.6	26.6	26.6	89	23.8	2	4	270	0.00	29.825 
00:05	26.3	26.3	26.3	89	23.5	2	5	270	0.00	29.825 
00:10	26.1	26.1	26.1	89	23.3	2	4	270	0.00	29.825 
00:15	26.0	26.0	26.0	88	22.9	3	6	270	0.00	29.826 
00:20	25.8	25.8	25.8	87	22.5	2	5	270	0.00	29.826 
00:25	25.8	25.8	25.8	85	21.9	2	4	248	0.00	29.826 
00:30	25.7	25.7	25.7	84	21.5	2	5	270	0.00	29.827 
00:35	25.7	25.7	25.7	84	21.5	2	5	270	0.00	29.827 
00:40	25.6	25.6	25.6	84	21.5	2	4	292	0.00	29.827 
00:45	25.4	25.4	25.4	84	21.3	2	5	270	0.00	29.828 
00:50	25.3	25.3	25.3	85	21.4	2	5	270	0.00	29.828 
00:55	25.3	25.3	25.3	86	21.7	1	2	270	0.00	29.828 
01:00	25.1	25.1	25.1	86	21.5	1	2	248	0.00	29.826 
01:05	25.1	25.1	25.1	86	21.5	1	4	248	0.00	29.826 
01:10	25.0	25.0	25.0	86	21.4	1	3	248	0.00	29.826 
01:15	25.1	25.1	25.1	84	21.0	2	4	292	0.00	29.825 
01:20	25.1	25.1	25.1	84	21.0	1	3	248	0.00	29.825 
01:25	25.1	25.1	25.1	83	20.7	1	3	248	0.00	29.825 
01:30	25.1	25.1	25.1	82	20.4	1	4	248	0.00	29.824 
01:35	25.1	25.1	25.1	82	20.4	2	5	248	0.00	29.824 
01:40	25.1	25.1	25.1	81	20.1	1	3	248	0.00	29.824 
01:45	25.1	25.1	25.1	81	20.1	1	7	248	0.00	29.821 
01:50	25.1	25.1	25.1	80	19.8	2	5	270	0.00	29.821 
01:55	25.1	25.1	25.1	80	19.8	2	4	270	0.00	29.821 
02:00	25.0	25.0	25.0	80	19.7	1	3	270	0.00	29.818 
02:05	25.0	25.0	25.0	80	19.7	1	4	248	0.00	29.818 
02:10	25.0	25.0	25.0	80	19.7	1	4	248	0.00	29.818 
02:15	25.0	25.0	25.0	80	19.7	2	5	270	0.00	29.816 
02:20	24.8	24.8	24.8	80	19.5	2	6	270	0.00	29.816 
02:25	24.8	24.8	24.8	80	19.5	1	4	270	0.00	29.816 
02:30	24.8	24.8	24.8	80	19.5	2	5	270	0.00	29.817 
02:35	24.8	24.8	24.8	79	19.2	2	5	270	0.00	29.817 
02:40	24.7	24.7	24.7	80	19.4	2	5	248	0.00	29.817 
02:45	24.7	24.7	24.7	79	19.1	2	4	270	0.00	29.818 
02:50	24.7	24.7	24.7	79	19.1	2	5	270	0.00	29.818 
02:55	24.7	24.7	24.7	80	19.4	2	4	270	0.00	29.818 
03:00	24.7	24.7	24.7	80	19.4	1	4	248	0.00	29.818 
03:05	24.5	24.5	24.5	81	19.5	2	6	248	0.00	29.818 
03:10	24.5	24.5	24.5	80	19.2	2	5	270	0.00	29.818 
03:15	24.5	24.5	24.5	80	19.2	2	4	270	0.00	29.814 
03:20	24.5	24.5	24.5	80	19.2	1	2	248	0.00	29.814 
03:25	24.4	24.4	24.4	80	19.1	2	6	248	0.00	29.814 
03:30	24.4	24.4	24.4	81	19.4	1	6	248	0.00	29.814 
03:35	24.4	24.4	24.4	81	19.4	2	4	270	0.00	29.814 
03:40	24.4	24.4	24.4	81	19.4	1	5	248	0.00	29.814 
03:45	24.4	24.4	24.4	81	19.4	3	12	270	0.00	29.811 
03:50	24.4	24.4	24.4	81	19.4	3	6	270	0.00	29.811 
03:55	24.2	17.9	24.2	80	18.9	5	12	248	0.00	29.811 
04:00	23.9	18.7	23.9	79	18.4	4	13	270	0.00	29.807 
04:05	23.8	23.8	23.8	78	18.0	2	10	270	0.00	29.807 
04:10	23.6	23.6	23.6	79	18.1	3	9	270	0.00	29.807 
04:15	23.5	23.5	23.5	79	18.0	3	8	270	0.00	29.808 
04:20	23.2	23.2	23.2	80	18.0	2	6	270	0.00	29.808 
04:25	22.7	22.7	22.7	80	17.5	3	9	270	0.00	29.808 
04:30	22.2	16.8	22.2	80	17.0	4	12	270	0.00	29.807 
04:35	21.8	16.3	21.8	81	16.9	4	12	270	0.00	29.807 
04:40	21.4	21.4	21.4	81	16.5	3	9	270	0.00	29.807 
04:45	21.1	14.3	21.1	81	16.2	5	15	270	0.00	29.815 
04:50	20.8	15.1	20.8	81	15.9	4	13	270	0.00	29.815 
04:55	20.5	14.8	20.5	82	15.9	4	9	270	0.00	29.815 
05:00	20.3	20.3	20.3	82	15.7	3	9	270	0.00	29.815 
05:05	20.2	20.2	20.2	81	15.3	3	8	270	0.00	29.815 
05:10	20.0	20.0	20.0	80	14.8	3	7	270	0.00	29.815 
05:15	19.7	12.6	19.7	79	14.3	5	11	270	0.00	29.820 
05:20	19.4	19.4	19.4	79	14.0	3	10	270	0.00	29.820 
05:25	19.2	19.2	19.2	80	14.1	3	10	270	0.00	29.820 
05:30	18.9	18.9	18.9	79	13.5	3	11	270	0.00	29.822 
05:35	18.6	18.6	18.6	78	12.9	3	7	270	0.00	29.822 
05:40	18.4	18.4	18.4	78	12.7	3	10	270	0.00	29.822 
05:45	18.3	18.3	18.3	78	12.6	3	10	270	0.00	29.818 
05:50	18.3	18.3	18.3	78	12.6	2	5	248	0.00	29.818 
05:55	18.1	18.1	18.1	78	12.4	3	10	270	0.00	29.818 
06:00	18.1	18.1	18.1	77	12.1	3	11	270	0.00	29.819 
06:05	18.1	18.1	18.1	77	12.1	3	9	270	0.00	29.819 
06:10	18.1	18.1	18.1	78	12.4	3	8	270	0.00	29.819 
06:15	18.0	18.0	18.0	77	12.0	1	5	270	0.00	29.821 
06:20	17.8	17.8	17.8	77	11.8	3	11	270	0.00	29.821 
06:25	17.3	17.3	17.3	76	11.1	3	9	270	0.00	29.821 
06:30	17.0	17.0	17.0	76	10.8	2	9	248	0.00	29.826 
06:35	16.7	16.7	16.7	75	10.2	3	9	270	0.00	29.826 
06:40	16.2	16.2	16.2	76	10.0	3	9	270	0.00	29.826 
06:45	15.7	9.2	15.7	76	9.5	4	9	270	0.00	29.826 
06:50	15.4	7.6	15.4	76	9.2	5	14	270	0.00	29.826 
06:55	15.2	15.2	15.2	76	9.0	3	10	270	0.00	29.826 
07:00	14.9	14.9	14.9	76	8.7	3	10	270	0.00	29.832 
07:05	14.6	14.6	14.6	76	8.4	3	10	270	0.00	29.832 
07:10	14.4	14.4	14.4	76	8.2	2	9	270	0.00	29.832 
07:15	14.1	4.9	14.1	76	8.0	6	13	270	0.00	29.833 
07:20	13.8	13.8	13.8	76	7.7	3	11	270	0.00	29.833 
07:25	13.8	13.8	13.8	77	7.9	3	7	270	0.00	29.833 
07:30	13.8	13.8	13.8	77	7.9	3	10	248	0.00	29.837 
07:35	13.6	13.6	13.6	77	7.8	3	10	270	0.00	29.837 
07:40	13.5	13.5	13.5	76	7.4	3	9	270	0.00	29.837 
07:45	13.3	13.3	13.3	76	7.2	3	12	270	0.00	29.841 
07:50	13.1	13.1	13.1	76	7.0	2	10	248	0.00	29.841 
07:55	13.1	13.1	13.1	76	7.0	2	9	270	0.00	29.841 
08:00	12.8	5.9	12.8	76	6.7	4	13	270	0.00	29.845 
08:05	12.8	5.9	12.8	76	6.7	4	11	270	0.00	29.845 
08:10	12.6	3.1	12.6	76	6.5	6	16	270	0.00	29.845 
08:15	12.6	12.6	12.6	76	6.5	3	7	270	0.00	29.845 
08:20	12.6	12.6	12.6	76	6.5	3	9	270	0.00	29.845 
08:25	12.8	12.8	12.8	76	6.7	2	7	270	0.00	29.845 
08:30	12.8	12.8	12.8	76	6.7	2	11	270	0.00	29.848 
08:35	12.6	12.6	12.6	75	6.2	3	10	270	0.00	29.848 
08:40	12.6	4.3	12.6	75	6.2	5	15	248	0.00	29.848 
08:45	12.6	12.6	12.6	75	6.2	3	9	270	0.00	29.850 
08:50	12.6	12.6	12.6	76	6.5	2	10	270	0.00	29.850 
08:55	12.6	12.6	12.6	75	6.2	3	13	270	0.00	29.850 
09:00	12.6	12.6	12.6	75	6.2	3	9	270	0.00	29.858 
09:05	12.6	12.6	12.6	76	6.5	2	7	270	0.00	29.858 
09:10	12.8	12.8	12.8	76	6.7	2	12	270	0.00	29.858 
09:15	12.8	12.8	12.8	77	7.0	2	6	270	0.00	29.855 
09:20	12.6	12.6	12.6	78	7.1	2	6	270	0.00	29.855 
09:25	12.6	12.6	12.6	79	7.3	2	9	270	0.00	29.855 
09:30	12.8	12.8	12.8	80	7.8	1	9	270	0.00	29.853 
09:35	12.8	12.8	12.8	80	7.8	2	15	248	0.00	29.853 
09:40	12.8	12.8	12.8	79	7.5	3	13	270	0.00	29.853 
09:45	12.9	12.9	12.9	79	7.6	2	7	270	0.00	29.855 
09:50	13.1	13.1	13.1	79	7.8	2	4	270	0.00	29.855 
09:55	13.1	13.1	13.1	78	7.6	3	7	248	0.00	29.855 
10:00	12.9	6.0	12.9	79	7.6	4	11	270	0.00	29.851 
10:05	12.9	12.9	12.9	79	7.6	3	12	270	0.00	29.851 
10:10	12.8	5.9	12.8	78	7.3	4	14	270	0.00	29.851 
10:15	12.8	5.9	12.8	78	7.3	4	13	270	0.00	29.852 
10:20	12.8	5.9	12.8	78	7.3	4	13	270	0.00	29.852 
10:25	12.8	12.8	12.8	79	7.5	2	6	270	0.00	29.852 
10:30	12.8	5.9	12.8	79	7.5	4	12	270	0.00	29.857 
10:35	12.4	5.4	12.4	78	6.9	4	14	270	0.00	29.857 
10:40	12.6	12.6	12.6	79	7.3	3	9	270	0.00	29.857 
10:45	12.6	12.6	12.6	80	7.6	2	6	270	0.00	29.857 
10:50	12.8	12.8	12.8	80	7.8	3	7	270	0.00	29.857 
10:55	12.9	12.9	12.9	80	7.9	2	7	270	0.00	29.857 
11:00	12.6	5.7	12.6	79	7.3	4	13	270	0.00	29.862 
11:05	12.6	12.6	12.6	80	7.6	2	9	270	0.00	29.862 
11:10	12.4	12.4	12.4	79	7.2	3	9	270	0.00	29.862 
11:15	12.4	12.4	12.4	79	7.2	2	7	270	0.00	29.863 
11:20	12.4	5.4	12.4	79	7.2	4	12	270	0.00	29.863 
11:25	12.3	3.9	12.3	78	6.8	5	13	270	0.00	29.863 
11:30	12.3	12.3	12.3	78	6.8	3	10	270	0.00	29.866 
11:35	12.1	2.5	12.1	76	6.0	6	17	270	0.00	29.866 
11:40	12.1	3.7	12.1	77	6.3	5	11	270	0.00	29.866 
11:45	12.4	5.4	12.4	76	6.3	4	11	270	0.00	29.862 
11:50	12.4	5.4	12.4	76	6.3	4	13	248	0.00	29.862 
11:55	12.8	12.8	12.8	77	7.0	3	7	270	0.00	29.862 
12:00	13.1	13.1	13.1	77	7.3	3	7	270	0.00	29.857 
12:05	13.1	6.2	13.1	77	7.3	4	11	248	0.00	29.857 
12:10	13.1	13.1	13.1	78	7.6	3	6	270	0.00	29.857 
12:15	12.9	6.0	12.9	75	6.5	4	11	270	0.00	29.853 
12:20	12.6	4.3	12.6	75	6.2	5	13	270	0.00	29.853 
12:25	12.8	5.9	12.8	75	6.4	4	10	270	0.00	29.853 
12:30	13.1	13.1	13.1	76	7.0	3	9	270	0.00	29.849 
12:35	13.5	6.7	13.5	75	7.1	4	10	270	0.00	29.849 
12:40	13.5	6.7	13.5	72	6.2	4	14	270	0.00	29.849 
12:45	13.3	5.1	13.3	72	6.0	5	12	270	0.00	29.845 
12:50	13.6	6.8	13.6	72	6.3	4	9	270	0.00	29.845 
12:55	13.5	6.7	13.5	70	5.6	4	9	270	0.00	29.845 
13:00	13.5	6.7	13.5	71	5.9	4	15	270	0.00	29.842 
13:05	13.6	6.8	13.6	73	6.6	4	11	270	0.00	29.842 
13:10	13.5	6.7	13.5	71	5.9	4	12	270	0.00	29.842 
13:15	13.3	6.5	13.3	72	6.0	4	9	270	0.00	29.840 
13:20	12.9	4.6	12.9	72	5.6	5	11	270	0.00	29.840 
13:25	12.6	3.1	12.6	71	5.0	6	15	270	0.00	29.840 
13:30	12.3	1.8	12.3	71	4.7	7	16	270	0.00	29.843 
13:35	12.3	5.3	12.3	73	5.3	4	14	270	0.00	29.843 
13:40	12.3	3.9	12.3	74	5.6	5	15	270	0.00	29.843 
13:45	12.1	3.7	12.1	75	5.7	5	15	270	0.00	29.846 
13:50	12.3	5.3	12.3	75	5.9	4	11	270	0.00	29.846 
13:55	12.4	12.4	12.4	74	5.7	3	9	270	0.00	29.846 
14:00	12.3	5.3	12.3	73	5.3	4	12	270	0.00	29.849 
14:05	12.3	5.3	12.3	73	5.3	4	10	270	0.00	29.849 
14:10	12.4	5.4	12.4	74	5.7	4	10	270	0.00	29.849 
14:15	12.4	12.4	12.4	74	5.7	3	10	270	0.00	29.849 
14:20	12.4	12.4	12.4	75	6.0	3	7	270	0.00	29.849 
14:25	12.6	5.7	12.6	75	6.2	4	12	270	0.00	29.849 
14:30	12.6	5.7	12.6	76	6.5	4	12	270	0.00	29.854 
14:35	12.8	12.8	12.8	77	7.0	2	5	270	0.00	29.854 
14:40	12.6	5.7	12.6	76	6.5	4	10	270	0.00	29.854 
14:45	12.3	12.3	12.3	76	6.2	3	10	270	0.00	29.861 
14:50	12.3	12.3	12.3	77	6.5	2	7	270	0.00	29.861 
14:55	12.3	12.3	12.3	78	6.8	3	11	270	0.00	29.861 
15:00	12.1	5.1	12.1	78	6.6	4	12	270	0.00	29.866 
15:05	12.3	12.3	12.3	79	7.1	2	7	270	0.00	29.866 
15:10	12.3	5.3	12.3	77	6.5	4	12	270	0.00	29.866 
15:15	12.4	5.4	12.4	76	6.3	4	11	270	0.00	29.868 
15:20	12.6	12.6	12.6	77	6.8	2	6	270	0.00	29.868 
15:25	12.9	12.9	12.9	77	7.1	2	5	270	0.00	29.868 
15:30	12.9	12.9	12.9	77	7.1	2	7	292	0.00	29.877 
15:35	12.9	12.9	12.9	77	7.1	3	7	270	0.00	29.877 
15:40	12.8	5.9	12.8	76	6.7	4	12	270	0.00	29.877 
15:45	12.8	5.9	12.8	76	6.7	4	13	270	0.00	29.883 
15:50	12.6	5.7	12.6	75	6.2	4	8	270	0.00	29.883 
15:55	12.8	12.8	12.8	75	6.4	2	6	270	0.00	29.883 
16:00	12.8	5.9	12.8	74	6.1	4	11	270	0.00	29.887 
16:05	13.1	13.1	13.1	74	6.4	2	7	270	0.00	29.887 
16:10	13.3	13.3	13.3	73	6.3	2	5	270	0.00	29.887 
16:15	13.3	13.3	13.3	72	6.0	3	6	270	0.00	29.894 
16:20	13.1	13.1	13.1	72	5.8	2	5	270	0.00	29.894 
16:25	12.9	12.9	12.9	72	5.6	3	12	270	0.00	29.894 
16:30	12.9	12.9	12.9	73	5.9	3	13	270	0.00	29.901 
16:35	13.1	13.1	13.1	73	6.1	2	7	270	0.00	29.901 
16:40	13.1	13.1	13.1	73	6.1	3	9	270	0.00	29.901 
16:45	13.1	13.1	13.1	72	5.8	3	6	270	0.00	29.905 
16:50	13.1	13.1	13.1	73	6.1	3	7	270	0.00	29.905 
16:55	12.9	12.9	12.9	72	5.6	3	7	270	0.00	29.905 
17:00	12.9	12.9	12.9	73	5.9	2	5	270	0.00	29.919 
17:05	12.9	12.9	12.9	72	5.6	2	9	270	0.00	29.919 
17:10	12.9	12.9	12.9	72	5.6	3	7	270	0.00	29.919 
17:15	13.1	13.1	13.1	73	6.1	1	5	270	0.00	29.929 
17:20	13.3	13.3	13.3	73	6.3	2	7	270	0.00	29.929 
17:25	13.3	13.3	13.3	73	6.3	3	7	270	0.00	29.929 
17:30	13.3	6.5	13.3	73	6.3	4	12	270	0.00	29.935 
17:35	13.1	13.1	13.1	73	6.1	2	7	270	0.00	29.935 
17:40	12.9	12.9	12.9	74	6.2	2	5	248	0.00	29.935 
17:45	12.9	12.9	12.9	74	6.2	3	12	270	0.00	29.939 
17:50	12.8	12.8	12.8	75	6.4	1	7	270	0.00	29.939 
17:55	12.6	12.6	12.6	75	6.2	2	9	270	0.00	29.939 
18:00	12.6	12.6	12.6	76	6.5	2	10	270	0.00	29.951 
18:05	12.6	12.6	12.6	76	6.5	1	5	248	0.00	29.951 
18:10	12.6	12.6	12.6	77	6.8	1	4	270	0.00	29.951 
18:15	12.6	12.6	12.6	76	6.5	2	7	270	0.00	29.959 
18:20	12.6	12.6	12.6	77	6.8	1	5	270	0.00	29.959 
18:25	12.6	12.6	12.6	77	6.8	2	4	270	0.00	29.959 
18:30	12.6	12.6	12.6	77	6.8	2	9	270	0.00	29.966 
18:35	12.6	12.6	12.6	77	6.8	1	6	270	0.00	29.966 
18:40	12.6	12.6	12.6	77	6.8	2	6	270	0.00	29.966 
18:45	12.6	12.6	12.6	77	6.8	1	7	270	0.00	29.976 
18:50	12.8	12.8	12.8	78	7.3	2	6	270	0.00	29.976 
18:55	12.8	12.8	12.8	77	7.0	1	8	270	0.00	29.976 
19:00	12.8	12.8	12.8	78	7.3	1	6	270	0.00	29.985 
19:05	12.8	12.8	12.8	78	7.3	1	6	270	0.00	29.985 
19:10	12.6	12.6	12.6	78	7.1	1	4	248	0.00	29.985 
19:15	12.8	12.8	12.8	79	7.5	1	5	270	0.00	29.991 
19:20	12.9	12.9	12.9	78	7.4	1	5	270	0.00	29.991 
19:25	12.9	12.9	12.9	78	7.4	1	4	248	0.00	29.991 
19:30	13.1	13.1	13.1	78	7.6	1	4	248	0.00	29.992 
19:35	13.1	13.1	13.1	78	7.6	1	5	270	0.00	29.992 
19:40	13.1	13.1	13.1	78	7.6	1	6	248	0.00	29.992 
19:45	12.8	12.8	12.8	78	7.3	1	5	270	0.00	30.000 
19:50	12.8	12.8	12.8	78	7.3	1	3	248	0.00	30.000 
19:55	12.6	12.6	12.6	78	7.1	1	4	248	0.00	30.000 
20:00	12.4	12.4	12.4	79	7.2	0	1	248	0.00	30.002 
20:05	12.3	12.3	12.3	79	7.1	0	3	248	0.00	30.002 
20:10	12.3	12.3	12.3	79	7.1	0	2	248	0.00	30.002 
20:15	12.1	12.1	12.1	80	7.1	0	2	248	0.00	30.006 
20:20	12.1	12.1	12.1	80	7.1	0	3	248	0.00	30.006 
20:25	12.1	12.1	12.1	80	7.1	1	4	248	0.00	30.006 
20:30	12.1	12.1	12.1	81	7.4	0	3	248	0.00	30.012 
20:35	12.1	12.1	12.1	81	7.4	0	3	248	0.00	30.012 
20:40	11.9	11.9	11.9	81	7.2	0	2	248	0.00	30.012 
20:45	11.9	11.9	11.9	81	7.2	0	2	248	0.00	30.019 
20:50	11.9	11.9	11.9	81	7.2	0	4	248	0.00	30.019 
20:55	11.9	11.9	11.9	82	7.5	1	3	248	0.00	30.019 
21:00	12.1	12.1	12.1	82	7.7	0	1	248	0.00	30.022 
21:05	12.1	12.1	12.1	82	7.7	0	2	248	0.00	30.022 
21:10	12.1	12.1	12.1	82	7.7	0	3	248	0.00	30.022 
21:15	12.1	12.1	12.1	82	7.7	0	1	248	0.00	30.034 
21:20	12.1	12.1	12.1	83	7.9	0	1	248	0.00	30.034 
21:25	12.3	12.3	12.3	83	8.1	0	1	248	0.00	30.034 
21:30	12.3	12.3	12.3	83	8.1	0	1	248	0.00	30.037 
21:35	12.3	12.3	12.3	83	8.1	0	1	248	0.00	30.037 
21:40	12.3	12.3	12.3	83	8.1	0	2	248	0.00	30.037 
21:45	12.3	12.3	12.3	83	8.1	0	2	248	0.00	30.051 
21:50	12.1	12.1	12.1	83	7.9	0	1	248	0.00	30.051 
21:55	12.1	12.1	12.1	83	7.9	0	1	248	0.00	30.051 
22:00	12.1	12.1	12.1	83	7.9	0	1	248	0.00	30.053 
22:05	11.9	11.9	11.9	83	7.8	0	1	248	0.00	30.053 
22:10	11.7	11.7	11.7	83	7.6	0	1	248	0.00	30.053 
22:15	11.6	11.6	11.6	83	7.5	0	0	---	0.00	30.051 
22:20	11.4	11.4	11.4	84	7.5	0	1	248	0.00	30.051 
22:25	11.1	11.1	11.1	84	7.2	0	0	---	0.00	30.051 
22:30	10.9	10.9	10.9	84	7.0	0	0	---	0.00	30.051 
22:35	10.7	10.7	10.7	84	6.8	0	0	---	0.00	30.051 
22:40	10.5	10.5	10.5	84	6.6	0	1	248	0.00	30.051 
22:45	10.4	10.4	10.4	84	6.5	0	2	248	0.00	30.063 
22:50	10.4	10.4	10.4	84	6.5	0	1	248	0.00	30.063 
22:55	10.4	10.4	10.4	84	6.5	0	1	248	0.00	30.063 
23:00	10.2	10.2	10.2	85	6.6	0	0	---	0.00	30.066 
23:05	10.2	10.2	10.2	85	6.6	0	1	248	0.00	30.066 
23:10	10.2	10.2	10.2	85	6.6	0	1	248	0.00	30.066 
23:15	10.2	10.2	10.2	85	6.6	0	1	248	0.00	30.070 
23:20	10.2	10.2	10.2	85	6.6	0	1	248	0.00	30.070 
23:25	10.4	10.4	10.4	85	6.8	0	1	248	0.00	30.070 
23:30	10.4	10.4	10.4	85	6.8	0	1	248	0.00	30.072 
23:35	10.4	10.4	10.4	85	6.8	0	1	248	0.00	30.072 
23:40	10.4	10.4	10.4	85	6.8	0	1	248	0.00	30.072 
23:45	10.4	10.4	10.4	85	6.8	0	0	---	0.00	30.074 
23:50	10.2	10.2	10.2	84	6.3	0	1	248	0.00	30.074 
23:55	10.0	10.0	10.0	84	6.2	0	0	---	0.00	30.074 

CoCoRaHS
IN-AL-39
A2 Web Hosting
Creative Commons License
GoDaddy
Look for:

loaded 2017-12-11 14:04:12 • last modified 2010-11-18 10:43:29
Privacy PolicyDisclaimer
• wx.awcolley.com is powered by PmWiki v.2002016 •
• all content (unless otherwise noted) © 2017 A W Colley